sensor_id;sensor_type;location;lat;lon;timestamp;pressure;altitude;pressure_sealevel;temperature;humidity
55592;BME280;41454;53.396;-1.510;2023-09-19T00:01:12;98833.49;;;8.55;100.00
55592;BME280;41454;53.396;-1.510;2023-09-19T00:03:40;98836.85;;;8.62;100.00
55592;BME280;41454;53.396;-1.510;2023-09-19T00:06:08;98840.74;;;8.42;100.00
55592;BME280;41454;53.396;-1.510;2023-09-19T00:08:35;98838.81;;;8.81;100.00
55592;BME280;41454;53.396;-1.510;2023-09-19T00:11:03;98829.68;;;8.56;100.00
55592;BME280;41454;53.396;-1.510;2023-09-19T00:13:30;98825.64;;;8.56;100.00
55592;BME280;41454;53.396;-1.510;2023-09-19T00:15:58;98816.51;;;8.20;100.00
55592;BME280;41454;53.396;-1.510;2023-09-19T00:18:25;98813.37;;;8.53;100.00
55592;BME280;41454;53.396;-1.510;2023-09-19T00:20:57;98817.08;;;8.35;100.00
55592;BME280;41454;53.396;-1.510;2023-09-19T00:23:24;98810.47;;;8.48;100.00
55592;BME280;41454;53.396;-1.510;2023-09-19T00:25:58;98812.92;;;8.50;100.00
55592;BME280;41454;53.396;-1.510;2023-09-19T00:28:25;98797.04;;;8.45;100.00
55592;BME280;41454;53.396;-1.510;2023-09-19T00:30:58;98788.52;;;8.17;100.00
55592;BME280;41454;53.396;-1.510;2023-09-19T00:33:25;98790.04;;;8.39;100.00
55592;BME280;41454;53.396;-1.510;2023-09-19T00:35:54;98780.21;;;8.18;100.00
55592;BME280;41454;53.396;-1.510;2023-09-19T00:38:23;98774.34;;;8.37;100.00
55592;BME280;41454;53.396;-1.510;2023-09-19T00:40:53;98770.81;;;8.41;100.00
55592;BME280;41454;53.396;-1.510;2023-09-19T00:43:21;98785.66;;;7.98;100.00
55592;BME280;41454;53.396;-1.510;2023-09-19T00:45:51;98792.87;;;8.42;100.00
55592;BME280;41454;53.396;-1.510;2023-09-19T00:48:19;98774.02;;;8.37;100.00
55592;BME280;41454;53.396;-1.510;2023-09-19T00:50:54;98765.89;;;8.07;100.00
55592;BME280;41454;53.396;-1.510;2023-09-19T00:53:24;98765.41;;;8.29;100.00
55592;BME280;41454;53.396;-1.510;2023-09-19T00:55:52;98777.17;;;8.15;100.00
55592;BME280;41454;53.396;-1.510;2023-09-19T00:58:19;98789.55;;;7.86;100.00
55592;BME280;41454;53.396;-1.510;2023-09-19T01:00:48;98801.00;;;8.23;100.00
55592;BME280;41454;53.396;-1.510;2023-09-19T01:03:15;98799.11;;;8.04;100.00
55592;BME280;41454;53.396;-1.510;2023-09-19T01:05:43;98804.40;;;8.16;100.00
55592;BME280;41454;53.396;-1.510;2023-09-19T01:08:10;98804.36;;;8.22;100.00
55592;BME280;41454;53.396;-1.510;2023-09-19T01:10:43;98805.04;;;7.99;100.00
55592;BME280;41454;53.396;-1.510;2023-09-19T01:13:18;98801.11;;;8.20;100.00
55592;BME280;41454;53.396;-1.510;2023-09-19T01:15:59;98787.58;;;8.48;100.00
55592;BME280;41454;53.396;-1.510;2023-09-19T01:18:38;98795.44;;;8.57;100.00
55592;BME280;41454;53.396;-1.510;2023-09-19T01:21:13;98794.58;;;8.19;100.00
55592;BME280;41454;53.396;-1.510;2023-09-19T01:24:03;98790.24;;;8.60;100.00
55592;BME280;41454;53.396;-1.510;2023-09-19T01:26:56;98791.59;;;8.49;100.00
55592;BME280;41454;53.396;-1.510;2023-09-19T01:29:37;98794.87;;;8.39;100.00
55592;BME280;41454;53.396;-1.510;2023-09-19T01:32:06;98793.72;;;8.56;100.00
55592;BME280;41454;53.396;-1.510;2023-09-19T01:34:53;98801.70;;;8.88;100.00
55592;BME280;41454;53.396;-1.510;2023-09-19T01:37:21;98798.90;;;8.71;100.00
55592;BME280;41454;53.396;-1.510;2023-09-19T01:39:52;98798.27;;;8.95;100.00
55592;BME280;41454;53.396;-1.510;2023-09-19T01:42:28;98801.87;;;8.61;100.00
55592;BME280;41454;53.396;-1.510;2023-09-19T01:45:04;98802.01;;;8.57;100.00
55592;BME280;41454;53.396;-1.510;2023-09-19T01:47:38;98803.22;;;8.59;100.00
55592;BME280;41454;53.396;-1.510;2023-09-19T01:50:15;98792.30;;;8.63;100.00
55592;BME280;41454;53.396;-1.510;2023-09-19T01:52:49;98797.61;;;8.81;100.00
55592;BME280;41454;53.396;-1.510;2023-09-19T01:55:21;98791.94;;;8.35;100.00
55592;BME280;41454;53.396;-1.510;2023-09-19T01:57:54;98790.76;;;8.84;100.00
55592;BME280;41454;53.396;-1.510;2023-09-19T02:00:26;98793.29;;;8.40;100.00
55592;BME280;41454;53.396;-1.510;2023-09-19T02:02:55;98802.65;;;8.42;100.00
55592;BME280;41454;53.396;-1.510;2023-09-19T02:05:23;98798.00;;;8.71;100.00
55592;BME280;41454;53.396;-1.510;2023-09-19T02:07:52;98794.21;;;8.67;100.00
55592;BME280;41454;53.396;-1.510;2023-09-19T02:10:20;98794.21;;;8.51;100.00
55592;BME280;41454;53.396;-1.510;2023-09-19T02:12:47;98785.67;;;9.30;100.00
55592;BME280;41454;53.396;-1.510;2023-09-19T02:15:14;98778.25;;;8.52;100.00
55592;BME280;41454;53.396;-1.510;2023-09-19T02:17:41;98775.75;;;8.71;100.00
55592;BME280;41454;53.396;-1.510;2023-09-19T02:20:10;98780.64;;;8.90;100.00
55592;BME280;41454;53.396;-1.510;2023-09-19T02:22:37;98772.97;;;9.01;100.00
55592;BME280;41454;53.396;-1.510;2023-09-19T02:25:05;98770.92;;;8.94;100.00
55592;BME280;41454;53.396;-1.510;2023-09-19T02:27:32;98768.73;;;9.14;100.00
55592;BME280;41454;53.396;-1.510;2023-09-19T02:29:59;98768.17;;;8.68;100.00
55592;BME280;41454;53.396;-1.510;2023-09-19T02:32:26;98770.35;;;8.87;100.00
55592;BME280;41454;53.396;-1.510;2023-09-19T02:34:53;98755.81;;;8.95;100.00
55592;BME280;41454;53.396;-1.510;2023-09-19T02:37:20;98755.11;;;8.84;100.00
55592;BME280;41454;53.396;-1.510;2023-09-19T02:39:47;98758.79;;;9.16;100.00
55592;BME280;41454;53.396;-1.510;2023-09-19T02:42:14;98760.26;;;9.21;100.00
55592;BME280;41454;53.396;-1.510;2023-09-19T02:44:42;98759.01;;;9.33;100.00
55592;BME280;41454;53.396;-1.510;2023-09-19T02:47:09;98753.03;;;9.27;100.00
55592;BME280;41454;53.396;-1.510;2023-09-19T02:49:37;98745.03;;;9.24;100.00
55592;BME280;41454;53.396;-1.510;2023-09-19T02:52:04;98738.80;;;8.95;100.00
55592;BME280;41454;53.396;-1.510;2023-09-19T02:54:31;98740.36;;;9.52;100.00
55592;BME280;41454;53.396;-1.510;2023-09-19T02:56:59;98737.92;;;8.90;100.00
55592;BME280;41454;53.396;-1.510;2023-09-19T02:59:26;98738.05;;;9.16;100.00
55592;BME280;41454;53.396;-1.510;2023-09-19T03:02:58;98741.11;;;8.92;100.00
55592;BME280;41454;53.396;-1.510;2023-09-19T03:05:25;98741.24;;;9.08;100.00
55592;BME280;41454;53.396;-1.510;2023-09-19T03:07:53;98744.16;;;8.64;100.00
55592;BME280;41454;53.396;-1.510;2023-09-19T03:10:23;98739.83;;;9.56;100.00
55592;BME280;41454;53.396;-1.510;2023-09-19T03:12:52;98739.60;;;9.40;100.00
55592;BME280;41454;53.396;-1.510;2023-09-19T03:15:19;98743.38;;;9.34;100.00
55592;BME280;41454;53.396;-1.510;2023-09-19T03:17:48;98745.53;;;9.62;100.00
55592;BME280;41454;53.396;-1.510;2023-09-19T03:20:16;98739.63;;;9.50;100.00
55592;BME280;41454;53.396;-1.510;2023-09-19T03:22:43;98737.10;;;9.67;100.00
55592;BME280;41454;53.396;-1.510;2023-09-19T03:25:10;98733.18;;;9.34;100.00
55592;BME280;41454;53.396;-1.510;2023-09-19T03:27:38;98723.76;;;10.04;100.00
55592;BME280;41454;53.396;-1.510;2023-09-19T03:30:07;98715.86;;;9.26;100.00
55592;BME280;41454;53.396;-1.510;2023-09-19T03:32:34;98701.96;;;9.01;100.00
55592;BME280;41454;53.396;-1.510;2023-09-19T03:35:02;98702.79;;;8.58;100.00
55592;BME280;41454;53.396;-1.510;2023-09-19T03:37:29;98700.98;;;9.39;100.00
55592;BME280;41454;53.396;-1.510;2023-09-19T03:39:56;98692.54;;;8.54;100.00
55592;BME280;41454;53.396;-1.510;2023-09-19T03:42:24;98690.43;;;9.37;100.00
55592;BME280;41454;53.396;-1.510;2023-09-19T03:44:56;98696.09;;;9.02;100.00
55592;BME280;41454;53.396;-1.510;2023-09-19T03:47:23;98700.86;;;9.07;100.00
55592;BME280;41454;53.396;-1.510;2023-09-19T03:49:52;98700.15;;;9.35;100.00
55592;BME280;41454;53.396;-1.510;2023-09-19T03:52:19;98694.71;;;9.43;100.00
55592;BME280;41454;53.396;-1.510;2023-09-19T03:54:46;98690.63;;;9.35;100.00
55592;BME280;41454;53.396;-1.510;2023-09-19T03:57:13;98691.84;;;8.93;100.00
55592;BME280;41454;53.396;-1.510;2023-09-19T03:59:40;98698.11;;;9.04;100.00
55592;BME280;41454;53.396;-1.510;2023-09-19T04:02:07;98699.29;;;9.29;100.00
55592;BME280;41454;53.396;-1.510;2023-09-19T04:04:35;98693.79;;;9.04;100.00
55592;BME280;41454;53.396;-1.510;2023-09-19T04:07:02;98683.52;;;8.93;100.00
55592;BME280;41454;53.396;-1.510;2023-09-19T04:09:29;98671.19;;;8.74;100.00
55592;BME280;41454;53.396;-1.510;2023-09-19T04:11:56;98660.41;;;8.01;100.00
55592;BME280;41454;53.396;-1.510;2023-09-19T04:14:23;98662.56;;;8.72;100.00
55592;BME280;41454;53.396;-1.510;2023-09-19T04:16:50;98669.30;;;8.90;100.00
55592;BME280;41454;53.396;-1.510;2023-09-19T04:19:17;98670.89;;;8.80;100.00
55592;BME280;41454;53.396;-1.510;2023-09-19T04:21:44;98674.15;;;8.67;100.00
55592;BME280;41454;53.396;-1.510;2023-09-19T04:24:11;98677.64;;;8.90;100.00
55592;BME280;41454;53.396;-1.510;2023-09-19T04:26:39;98679.51;;;8.39;100.00
55592;BME280;41454;53.396;-1.510;2023-09-19T04:29:06;98675.20;;;8.00;100.00
55592;BME280;41454;53.396;-1.510;2023-09-19T04:31:34;98663.29;;;8.66;100.00
55592;BME280;41454;53.396;-1.510;2023-09-19T04:34:01;98657.60;;;8.72;100.00
55592;BME280;41454;53.396;-1.510;2023-09-19T04:36:29;98648.49;;;8.51;100.00
55592;BME280;41454;53.396;-1.510;2023-09-19T04:38:56;98640.79;;;8.55;100.00
55592;BME280;41454;53.396;-1.510;2023-09-19T04:41:23;98631.25;;;8.75;100.00
55592;BME280;41454;53.396;-1.510;2023-09-19T04:43:51;98618.23;;;8.74;100.00
55592;BME280;41454;53.396;-1.510;2023-09-19T04:46:18;98618.93;;;8.64;100.00
55592;BME280;41454;53.396;-1.510;2023-09-19T04:48:45;98608.09;;;9.02;100.00
55592;BME280;41454;53.396;-1.510;2023-09-19T04:51:13;98604.60;;;9.03;100.00
55592;BME280;41454;53.396;-1.510;2023-09-19T04:53:40;98599.80;;;9.04;100.00
55592;BME280;41454;53.396;-1.510;2023-09-19T04:56:08;98589.86;;;8.80;100.00
55592;BME280;41454;53.396;-1.510;2023-09-19T04:58:34;98585.83;;;9.35;100.00
55592;BME280;41454;53.396;-1.510;2023-09-19T05:01:01;98583.67;;;8.69;100.00
55592;BME280;41454;53.396;-1.510;2023-09-19T05:03:28;98570.85;;;8.85;100.00
55592;BME280;41454;53.396;-1.510;2023-09-19T05:05:55;98559.13;;;8.58;100.00
55592;BME280;41454;53.396;-1.510;2023-09-19T05:08:23;98548.40;;;9.09;100.00
55592;BME280;41454;53.396;-1.510;2023-09-19T05:12:23;98537.44;;;8.20;100.00
55592;BME280;41454;53.396;-1.510;2023-09-19T05:15:41;98530.46;;;8.83;100.00
55592;BME280;41454;53.396;-1.510;2023-09-19T05:18:08;98521.52;;;9.35;100.00
55592;BME280;41454;53.396;-1.510;2023-09-19T05:20:35;98513.70;;;9.19;100.00
55592;BME280;41454;53.396;-1.510;2023-09-19T05:23:04;98510.38;;;8.51;100.00
55592;BME280;41454;53.396;-1.510;2023-09-19T05:25:32;98506.39;;;8.32;100.00
55592;BME280;41454;53.396;-1.510;2023-09-19T05:28:00;98495.88;;;8.36;100.00
55592;BME280;41454;53.396;-1.510;2023-09-19T05:30:27;98479.19;;;8.42;100.00
55592;BME280;41454;53.396;-1.510;2023-09-19T05:32:54;98464.61;;;8.63;100.00
55592;BME280;41454;53.396;-1.510;2023-09-19T05:35:22;98452.62;;;8.08;100.00
55592;BME280;41454;53.396;-1.510;2023-09-19T05:37:51;98444.25;;;8.09;100.00
55592;BME280;41454;53.396;-1.510;2023-09-19T05:40:19;98443.45;;;8.50;100.00
55592;BME280;41454;53.396;-1.510;2023-09-19T05:42:47;98431.33;;;8.67;100.00
55592;BME280;41454;53.396;-1.510;2023-09-19T05:45:15;98420.13;;;8.23;100.00
55592;BME280;41454;53.396;-1.510;2023-09-19T05:47:42;98412.86;;;8.49;100.00
55592;BME280;41454;53.396;-1.510;2023-09-19T05:50:10;98402.66;;;8.63;100.00
55592;BME280;41454;53.396;-1.510;2023-09-19T05:52:57;98395.34;;;8.65;100.00
55592;BME280;41454;53.396;-1.510;2023-09-19T05:55:24;98385.20;;;8.87;100.00
55592;BME280;41454;53.396;-1.510;2023-09-19T05:57:51;98374.43;;;9.12;100.00
55592;BME280;41454;53.396;-1.510;2023-09-19T06:00:19;98373.14;;;8.84;100.00
55592;BME280;41454;53.396;-1.510;2023-09-19T06:02:50;98365.77;;;8.73;100.00
55592;BME280;41454;53.396;-1.510;2023-09-19T06:05:16;98364.77;;;8.69;100.00
55592;BME280;41454;53.396;-1.510;2023-09-19T06:07:43;98359.61;;;8.30;100.00
55592;BME280;41454;53.396;-1.510;2023-09-19T06:10:11;98363.28;;;9.36;100.00
55592;BME280;41454;53.396;-1.510;2023-09-19T06:12:38;98358.98;;;9.44;100.00
55592;BME280;41454;53.396;-1.510;2023-09-19T06:15:06;98366.36;;;8.95;100.00
55592;BME280;41454;53.396;-1.510;2023-09-19T06:17:33;98360.33;;;9.36;100.00
55592;BME280;41454;53.396;-1.510;2023-09-19T06:20:00;98350.68;;;8.94;100.00
55592;BME280;41454;53.396;-1.510;2023-09-19T06:22:27;98349.31;;;9.29;100.00
55592;BME280;41454;53.396;-1.510;2023-09-19T06:24:55;98340.22;;;9.41;100.00
55592;BME280;41454;53.396;-1.510;2023-09-19T06:27:22;98339.48;;;8.95;100.00
55592;BME280;41454;53.396;-1.510;2023-09-19T06:29:50;98336.21;;;9.68;100.00
55592;BME280;41454;53.396;-1.510;2023-09-19T06:32:17;98325.83;;;9.07;100.00
55592;BME280;41454;53.396;-1.510;2023-09-19T06:34:44;98318.78;;;9.52;100.00
55592;BME280;41454;53.396;-1.510;2023-09-19T06:37:11;98321.81;;;9.52;100.00
55592;BME280;41454;53.396;-1.510;2023-09-19T06:39:38;98312.13;;;9.70;100.00
55592;BME280;41454;53.396;-1.510;2023-09-19T06:42:05;98305.69;;;9.37;100.00
55592;BME280;41454;53.396;-1.510;2023-09-19T06:44:32;98293.77;;;9.86;100.00
55592;BME280;41454;53.396;-1.510;2023-09-19T06:46:59;98284.56;;;9.78;100.00
55592;BME280;41454;53.396;-1.510;2023-09-19T06:49:26;98276.32;;;9.92;100.00
55592;BME280;41454;53.396;-1.510;2023-09-19T06:51:54;98264.89;;;9.75;100.00
55592;BME280;41454;53.396;-1.510;2023-09-19T06:54:21;98269.25;;;9.54;100.00
55592;BME280;41454;53.396;-1.510;2023-09-19T06:56:48;98252.70;;;9.63;100.00
55592;BME280;41454;53.396;-1.510;2023-09-19T06:59:15;98257.00;;;9.73;100.00
55592;BME280;41454;53.396;-1.510;2023-09-19T07:01:42;98245.83;;;9.70;100.00
55592;BME280;41454;53.396;-1.510;2023-09-19T07:04:09;98250.10;;;9.80;100.00
55592;BME280;41454;53.396;-1.510;2023-09-19T07:06:36;98237.61;;;9.86;100.00
55592;BME280;41454;53.396;-1.510;2023-09-19T07:09:03;98227.98;;;9.44;100.00
55592;BME280;41454;53.396;-1.510;2023-09-19T07:11:30;98217.15;;;9.86;100.00
55592;BME280;41454;53.396;-1.510;2023-09-19T07:13:57;98203.87;;;10.54;100.00
55592;BME280;41454;53.396;-1.510;2023-09-19T07:16:24;98197.27;;;10.47;100.00
55592;BME280;41454;53.396;-1.510;2023-09-19T07:18:51;98196.10;;;10.05;100.00
55592;BME280;41454;53.396;-1.510;2023-09-19T07:21:18;98200.16;;;10.31;100.00
55592;BME280;41454;53.396;-1.510;2023-09-19T07:23:45;98181.53;;;9.89;100.00
55592;BME280;41454;53.396;-1.510;2023-09-19T07:26:11;98185.04;;;9.85;100.00
55592;BME280;41454;53.396;-1.510;2023-09-19T07:28:38;98176.08;;;10.21;100.00
55592;BME280;41454;53.396;-1.510;2023-09-19T07:31:05;98167.11;;;9.58;100.00
55592;BME280;41454;53.396;-1.510;2023-09-19T07:33:32;98171.40;;;10.33;100.00
55592;BME280;41454;53.396;-1.510;2023-09-19T07:36:00;98170.63;;;10.15;100.00
55592;BME280;41454;53.396;-1.510;2023-09-19T07:38:28;98170.79;;;10.37;100.00
55592;BME280;41454;53.396;-1.510;2023-09-19T07:41:00;98167.63;;;10.42;100.00
55592;BME280;41454;53.396;-1.510;2023-09-19T07:43:27;98162.39;;;10.49;100.00
55592;BME280;41454;53.396;-1.510;2023-09-19T07:45:55;98163.02;;;10.65;100.00
55592;BME280;41454;53.396;-1.510;2023-09-19T07:48:22;98145.04;;;10.35;100.00
55592;BME280;41454;53.396;-1.510;2023-09-19T07:50:50;98141.89;;;10.25;100.00
55592;BME280;41454;53.396;-1.510;2023-09-19T07:53:17;98136.75;;;10.24;100.00
55592;BME280;41454;53.396;-1.510;2023-09-19T07:55:45;98134.96;;;10.45;100.00
55592;BME280;41454;53.396;-1.510;2023-09-19T07:58:12;98109.84;;;10.30;100.00
55592;BME280;41454;53.396;-1.510;2023-09-19T08:00:40;98107.02;;;10.51;100.00
55592;BME280;41454;53.396;-1.510;2023-09-19T08:03:06;98103.78;;;10.25;100.00
55592;BME280;41454;53.396;-1.510;2023-09-19T08:05:33;98090.91;;;10.30;100.00
55592;BME280;41454;53.396;-1.510;2023-09-19T08:08:06;98091.50;;;10.58;100.00
55592;BME280;41454;53.396;-1.510;2023-09-19T08:10:33;98091.87;;;10.63;100.00
55592;BME280;41454;53.396;-1.510;2023-09-19T08:13:06;98090.73;;;10.14;100.00
55592;BME280;41454;53.396;-1.510;2023-09-19T08:15:33;98090.89;;;10.49;100.00
55592;BME280;41454;53.396;-1.510;2023-09-19T08:21:50;98088.86;;;11.18;100.00
55592;BME280;41454;53.396;-1.510;2023-09-19T08:24:17;98079.90;;;10.58;100.00
55592;BME280;41454;53.396;-1.510;2023-09-19T08:26:45;98096.77;;;10.98;100.00
55592;BME280;41454;53.396;-1.510;2023-09-19T08:29:13;98106.36;;;11.12;100.00
55592;BME280;41454;53.396;-1.510;2023-09-19T08:31:41;98086.48;;;11.33;100.00
55592;BME280;41454;53.396;-1.510;2023-09-19T08:34:09;98109.29;;;11.08;100.00
55592;BME280;41454;53.396;-1.510;2023-09-19T08:36:36;98099.74;;;11.33;100.00
55592;BME280;41454;53.396;-1.510;2023-09-19T08:39:03;98097.06;;;11.34;100.00
55592;BME280;41454;53.396;-1.510;2023-09-19T08:41:35;98100.32;;;11.25;100.00
55592;BME280;41454;53.396;-1.510;2023-09-19T08:44:02;98109.14;;;11.18;100.00
55592;BME280;41454;53.396;-1.510;2023-09-19T08:46:30;98122.62;;;11.34;100.00
55592;BME280;41454;53.396;-1.510;2023-09-19T08:49:04;98116.56;;;11.57;100.00
55592;BME280;41454;53.396;-1.510;2023-09-19T08:51:39;98124.90;;;11.35;100.00
55592;BME280;41454;53.396;-1.510;2023-09-19T08:54:20;98117.67;;;11.46;100.00
55592;BME280;41454;53.396;-1.510;2023-09-19T08:56:48;98123.89;;;11.22;100.00
55592;BME280;41454;53.396;-1.510;2023-09-19T08:59:16;98119.85;;;11.26;100.00
55592;BME280;41454;53.396;-1.510;2023-09-19T09:01:44;98126.25;;;11.12;100.00
55592;BME280;41454;53.396;-1.510;2023-09-19T09:04:12;98135.20;;;10.64;100.00
55592;BME280;41454;53.396;-1.510;2023-09-19T09:06:41;98126.10;;;11.07;100.00
55592;BME280;41454;53.396;-1.510;2023-09-19T09:09:09;98129.61;;;11.23;100.00
55592;BME280;41454;53.396;-1.510;2023-09-19T09:11:38;98135.08;;;11.22;100.00
55592;BME280;41454;53.396;-1.510;2023-09-19T09:14:12;98128.43;;;11.38;100.00
55592;BME280;41454;53.396;-1.510;2023-09-19T09:16:40;98130.82;;;11.05;100.00
55592;BME280;41454;53.396;-1.510;2023-09-19T09:19:13;98123.59;;;11.29;100.00
55592;BME280;41454;53.396;-1.510;2023-09-19T09:22:07;98138.82;;;11.26;100.00
55592;BME280;41454;53.396;-1.510;2023-09-19T09:24:34;98125.29;;;11.57;100.00
55592;BME280;41454;53.396;-1.510;2023-09-19T09:27:04;98117.77;;;11.81;100.00
55592;BME280;41454;53.396;-1.510;2023-09-19T09:29:49;98118.65;;;11.97;100.00
55592;BME280;41454;53.396;-1.510;2023-09-19T09:32:18;98113.04;;;12.05;100.00
55592;BME280;41454;53.396;-1.510;2023-09-19T09:34:49;98131.61;;;12.75;100.00
55592;BME280;41454;53.396;-1.510;2023-09-19T09:37:17;98124.02;;;12.17;100.00
55592;BME280;41454;53.396;-1.510;2023-09-19T09:39:50;98115.50;;;12.51;100.00
55592;BME280;41454;53.396;-1.510;2023-09-19T09:42:30;98119.97;;;12.07;100.00
55592;BME280;41454;53.396;-1.510;2023-09-19T09:45:12;98106.49;;;12.48;100.00
55592;BME280;41454;53.396;-1.510;2023-09-19T09:47:44;98113.07;;;12.70;100.00
55592;BME280;41454;53.396;-1.510;2023-09-19T09:50:12;98110.71;;;12.34;100.00
55592;BME280;41454;53.396;-1.510;2023-09-19T09:52:46;98108.87;;;13.16;100.00
55592;BME280;41454;53.396;-1.510;2023-09-19T09:55:14;98105.27;;;12.67;100.00
55592;BME280;41454;53.396;-1.510;2023-09-19T09:57:41;98114.14;;;13.13;100.00
55592;BME280;41454;53.396;-1.510;2023-09-19T10:00:10;98099.21;;;13.00;100.00
55592;BME280;41454;53.396;-1.510;2023-09-19T10:02:38;98108.48;;;13.62;100.00
55592;BME280;41454;53.396;-1.510;2023-09-19T10:05:12;98099.52;;;13.20;100.00
55592;BME280;41454;53.396;-1.510;2023-09-19T10:07:40;98093.53;;;13.29;100.00
55592;BME280;41454;53.396;-1.510;2023-09-19T10:10:08;98091.45;;;13.51;100.00
55592;BME280;41454;53.396;-1.510;2023-09-19T10:12:40;98104.21;;;13.68;100.00
55592;BME280;41454;53.396;-1.510;2023-09-19T10:15:11;98101.39;;;13.77;100.00
55592;BME280;41454;53.396;-1.510;2023-09-19T10:17:42;98096.71;;;13.81;100.00
55592;BME280;41454;53.396;-1.510;2023-09-19T10:20:12;98110.04;;;13.77;100.00
55592;BME280;41454;53.396;-1.510;2023-09-19T10:22:40;98107.80;;;14.09;100.00
55592;BME280;41454;53.396;-1.510;2023-09-19T10:25:08;98103.80;;;14.31;100.00
55592;BME280;41454;53.396;-1.510;2023-09-19T10:27:36;98101.56;;;14.18;100.00
55592;BME280;41454;53.396;-1.510;2023-09-19T10:30:06;98109.04;;;14.43;100.00
55592;BME280;41454;53.396;-1.510;2023-09-19T10:32:35;98095.76;;;14.65;100.00
55592;BME280;41454;53.396;-1.510;2023-09-19T10:35:07;98079.37;;;14.69;100.00
55592;BME280;41454;53.396;-1.510;2023-09-19T10:37:35;98097.64;;;14.35;100.00
55592;BME280;41454;53.396;-1.510;2023-09-19T10:40:04;98097.91;;;14.68;100.00
55592;BME280;41454;53.396;-1.510;2023-09-19T10:42:34;98100.71;;;14.29;100.00
55592;BME280;41454;53.396;-1.510;2023-09-19T10:45:06;98099.23;;;15.06;100.00
55592;BME280;41454;53.396;-1.510;2023-09-19T10:47:34;98114.48;;;14.57;100.00
55592;BME280;41454;53.396;-1.510;2023-09-19T10:50:02;98111.53;;;14.55;100.00
55592;BME280;41454;53.396;-1.510;2023-09-19T10:52:29;98099.94;;;14.44;100.00
55592;BME280;41454;53.396;-1.510;2023-09-19T10:54:57;98111.45;;;14.70;100.00
55592;BME280;41454;53.396;-1.510;2023-09-19T10:57:25;98117.70;;;14.48;100.00
55592;BME280;41454;53.396;-1.510;2023-09-19T11:00:09;98106.77;;;14.33;100.00
55592;BME280;41454;53.396;-1.510;2023-09-19T11:02:37;98111.24;;;14.55;100.00
55592;BME280;41454;53.396;-1.510;2023-09-19T11:05:12;98114.98;;;15.20;100.00
55592;BME280;41454;53.396;-1.510;2023-09-19T11:08:01;98114.67;;;15.38;100.00
55592;BME280;41454;53.396;-1.510;2023-09-19T11:11:00;98116.05;;;15.10;100.00
55592;BME280;41454;53.396;-1.510;2023-09-19T11:13:29;98119.53;;;15.10;100.00
55592;BME280;41454;53.396;-1.510;2023-09-19T11:16:05;98113.32;;;15.07;100.00
55592;BME280;41454;53.396;-1.510;2023-09-19T11:19:05;98113.49;;;14.80;100.00
55592;BME280;41454;53.396;-1.510;2023-09-19T11:22:04;98120.93;;;15.13;100.00
55592;BME280;41454;53.396;-1.510;2023-09-19T11:24:31;98119.28;;;15.37;100.00
55592;BME280;41454;53.396;-1.510;2023-09-19T11:27:15;98133.11;;;15.05;100.00
55592;BME280;41454;53.396;-1.510;2023-09-19T11:29:43;98128.84;;;14.71;100.00
55592;BME280;41454;53.396;-1.510;2023-09-19T11:32:10;98135.34;;;14.77;100.00
55592;BME280;41454;53.396;-1.510;2023-09-19T11:34:40;98141.96;;;14.55;100.00
55592;BME280;41454;53.396;-1.510;2023-09-19T11:38:13;98138.26;;;14.58;100.00
55592;BME280;41454;53.396;-1.510;2023-09-19T11:40:45;98129.62;;;14.93;100.00
55592;BME280;41454;53.396;-1.510;2023-09-19T11:43:29;98154.33;;;14.92;100.00
55592;BME280;41454;53.396;-1.510;2023-09-19T11:46:13;98165.44;;;15.09;100.00
55592;BME280;41454;53.396;-1.510;2023-09-19T11:48:41;98154.07;;;14.76;100.00
55592;BME280;41454;53.396;-1.510;2023-09-19T11:51:15;98150.84;;;14.95;100.00
55592;BME280;41454;53.396;-1.510;2023-09-19T11:53:43;98156.30;;;14.96;100.00
55592;BME280;41454;53.396;-1.510;2023-09-19T11:56:12;98164.71;;;14.88;100.00
55592;BME280;41454;53.396;-1.510;2023-09-19T11:58:41;98161.48;;;14.51;100.00
55592;BME280;41454;53.396;-1.510;2023-09-19T12:01:11;98166.22;;;14.49;100.00
55592;BME280;41454;53.396;-1.510;2023-09-19T12:03:43;98184.29;;;14.58;100.00
55592;BME280;41454;53.396;-1.510;2023-09-19T12:06:13;98186.68;;;14.55;100.00
55592;BME280;41454;53.396;-1.510;2023-09-19T12:08:41;98178.76;;;13.90;100.00
55592;BME280;41454;53.396;-1.510;2023-09-19T12:11:14;98178.50;;;14.69;100.00
55592;BME280;41454;53.396;-1.510;2023-09-19T12:13:43;98182.98;;;14.55;100.00
55592;BME280;41454;53.396;-1.510;2023-09-19T12:16:19;98182.81;;;14.41;100.00
55592;BME280;41454;53.396;-1.510;2023-09-19T12:18:48;98186.19;;;14.19;100.00
55592;BME280;41454;53.396;-1.510;2023-09-19T12:21:25;98207.88;;;14.11;100.00
55592;BME280;41454;53.396;-1.510;2023-09-19T12:23:59;98182.90;;;14.50;100.00
55592;BME280;41454;53.396;-1.510;2023-09-19T12:26:27;98186.89;;;14.17;100.00
55592;BME280;41454;53.396;-1.510;2023-09-19T12:28:55;98175.90;;;14.47;100.00
55592;BME280;41454;53.396;-1.510;2023-09-19T12:32:33;98174.41;;;15.08;100.00
55592;BME280;41454;53.396;-1.510;2023-09-19T12:35:02;98195.93;;;14.86;100.00
55592;BME280;41454;53.396;-1.510;2023-09-19T12:37:29;98190.91;;;14.79;100.00
55592;BME280;41454;53.396;-1.510;2023-09-19T12:40:05;98198.29;;;15.33;100.00
55592;BME280;41454;53.396;-1.510;2023-09-19T12:42:34;98193.53;;;15.19;100.00
55592;BME280;41454;53.396;-1.510;2023-09-19T12:45:07;98200.81;;;14.90;100.00
55592;BME280;41454;53.396;-1.510;2023-09-19T12:48:23;98212.84;;;14.39;100.00
55592;BME280;41454;53.396;-1.510;2023-09-19T12:51:07;98213.86;;;15.45;100.00
55592;BME280;41454;53.396;-1.510;2023-09-19T12:53:36;98205.55;;;15.02;100.00
55592;BME280;41454;53.396;-1.510;2023-09-19T12:56:04;98208.68;;;15.46;100.00
55592;BME280;41454;53.396;-1.510;2023-09-19T12:58:32;98200.04;;;14.93;100.00
55592;BME280;41454;53.396;-1.510;2023-09-19T13:01:14;98202.86;;;15.22;100.00
55592;BME280;41454;53.396;-1.510;2023-09-19T13:03:41;98183.07;;;15.38;100.00
55592;BME280;41454;53.396;-1.510;2023-09-19T13:06:08;98195.64;;;15.52;100.00
55592;BME280;41454;53.396;-1.510;2023-09-19T13:08:37;98186.73;;;15.75;100.00